Time;durP1;ratioP1;P1;durP2;ratioP2;P2;SDS_P1;SDS_P2;PMS_P1;PMS_P2;Temp;Humidity;BMP_temperature;BMP_pressure;BME280_temperature;BME280_humidity;BME280_pressure;Samples;Min_cycle;Max_cycle;Signal;HPM_P1;HPM_P2
2023/08/21 00:00:52;;;;;;;12.80;11.57;;;23.30;99.90;;;;;;5032113;28;20464;-83
2023/08/21 00:03:18;;;;;;;13.53;12.20;;;23.20;99.90;;;;;;5030185;28;20415;-83
2023/08/21 00:05:43;;;;;;;13.80;12.60;;;23.10;99.90;;;;;;5030592;28;20470;-83
2023/08/21 00:08:09;;;;;;;13.07;11.90;;;23.20;99.90;;;;;;5042368;28;20396;-83
2023/08/21 00:10:37;;;;;;;13.60;12.30;;;23.20;99.90;;;;;;5051498;28;20401;-83
2023/08/21 00:13:03;;;;;;;12.50;11.50;;;22.00;99.90;;;;;;5050658;28;20822;-83
2023/08/21 00:15:28;;;;;;;13.63;12.43;;;23.10;99.90;;;;;;5052019;28;20464;-83
2023/08/21 00:17:54;;;;;;;13.65;12.45;;;23.00;99.90;;;;;;5050683;28;20932;-83
2023/08/21 00:20:20;;;;;;;13.70;12.40;;;23.10;99.90;;;;;;5051462;28;20400;-83
2023/08/21 00:22:45;;;;;;;12.20;11.10;;;23.10;99.90;;;;;;5050167;28;20393;-82
2023/08/21 00:25:11;;;;;;;13.00;11.90;;;23.10;99.90;;;;;;5051542;28;20401;-83
2023/08/21 00:27:36;;;;;;;13.23;12.10;;;21.80;99.90;;;;;;5050475;28;20389;-83
2023/08/21 00:30:02;;;;;;;13.43;12.02;;;23.30;99.90;;;;;;5050164;28;20397;-83
2023/08/21 00:32:27;;;;;;;12.90;11.80;;;23.10;99.90;;;;;;5051473;28;20874;-82
2023/08/21 00:34:53;;;;;;;13.48;12.18;;;23.00;99.90;;;;;;5051047;28;20420;-82
2023/08/21 00:37:19;;;;;;;12.93;11.70;;;22.50;99.90;;;;;;5049511;28;20785;-83
2023/08/21 00:39:45;;;;;;;13.40;12.30;;;23.00;99.90;;;;;;5051252;28;20769;-83
2023/08/21 00:42:10;;;;;;;13.23;12.13;;;23.00;99.90;;;;;;5051740;28;20400;-83
2023/08/21 00:44:36;;;;;;;12.70;11.60;;;23.20;99.90;;;;;;5036849;28;20403;-83
2023/08/21 00:47:01;;;;;;;13.20;12.20;;;23.20;99.90;;;;;;5051178;28;20401;-83
2023/08/21 00:49:27;;;;;;;13.10;12.00;;;23.40;99.90;;;;;;5050120;28;20453;-83
2023/08/21 00:51:53;;;;;;;14.18;12.77;;;22.60;99.90;;;;;;5050772;28;20393;-83
2023/08/21 00:54:19;;;;;;;13.13;12.00;;;22.40;99.90;;;;;;5056107;28;20377;-83
2023/08/21 00:56:45;;;;;;;13.25;12.00;;;22.80;99.90;;;;;;5067805;28;20416;-84
2023/08/21 00:59:12;;;;;;;13.45;12.13;;;22.70;99.90;;;;;;5051191;28;20383;-84
2023/08/21 01:01:38;;;;;;;12.97;11.83;;;22.80;99.90;;;;;;5051205;28;20456;-84
2023/08/21 01:04:03;;;;;;;14.27;12.77;;;23.00;99.90;;;;;;5050240;28;20932;-84
2023/08/21 01:06:29;;;;;;;13.43;12.27;;;23.40;99.90;;;;;;5052870;28;20428;-84
2023/08/21 01:09:06;;;;;;;14.30;12.90;;;22.60;99.90;;;;;;5050873;28;20393;-84
2023/08/21 01:11:43;;;;;;;12.68;11.57;;;22.60;99.90;;;;;;5052559;28;20385;-84
2023/08/21 01:14:44;;;;;;;12.80;11.50;;;21.50;99.90;;;;;;5051074;28;20385;-84
2023/08/21 01:17:15;;;;;;;13.77;12.63;;;23.40;99.90;;;;;;5050536;28;20445;-83
2023/08/21 01:19:43;;;;;;;13.70;12.60;;;21.30;99.90;;;;;;5049330;28;20416;-83
2023/08/21 01:22:08;;;;;;;12.88;11.68;;;22.60;99.90;;;;;;5050817;28;20389;-84
2023/08/21 01:24:34;;;;;;;13.10;11.90;;;22.50;99.90;;;;;;5050869;28;20392;-83
2023/08/21 01:27:00;;;;;;;13.10;11.90;;;22.70;99.90;;;;;;5049621;28;20947;-81
2023/08/21 01:29:27;;;;;;;14.15;12.75;;;21.60;99.90;;;;;;5049577;28;20393;-81
2023/08/21 01:32:00;;;;;;;13.65;12.50;;;22.40;99.90;;;;;;5051530;28;20782;-82
2023/08/21 01:34:28;;;;;;;13.90;12.70;;;23.30;99.90;;;;;;5050882;28;20436;-82
2023/08/21 01:36:54;;;;;;;13.33;12.07;;;21.30;99.90;;;;;;5050898;28;20409;-81
2023/08/21 01:39:20;;;;;;;14.20;12.90;;;22.40;99.90;;;;;;5049351;28;20416;-82
2023/08/21 01:41:45;;;;;;;13.93;12.63;;;22.30;99.90;;;;;;5050830;28;20408;-81
2023/08/21 01:44:11;;;;;;;13.77;12.60;;;21.60;99.90;;;;;;5044810;28;20408;-83
2023/08/21 01:46:36;;;;;;;14.63;13.33;;;22.30;99.90;;;;;;5050957;28;20377;-84
2023/08/21 01:49:02;;;;;;;14.15;12.75;;;22.10;99.90;;;;;;5048612;28;20398;-84
2023/08/21 01:51:27;;;;;;;14.50;13.20;;;22.20;99.90;;;;;;5049153;28;21018;-84
2023/08/21 01:53:53;;;;;;;14.20;12.95;;;22.10;99.90;;;;;;5050502;28;20873;-81
2023/08/21 01:56:18;;;;;;;14.50;13.30;;;22.10;99.90;;;;;;5048877;28;20464;-81
2023/08/21 01:58:44;;;;;;;13.20;11.90;;;21.30;99.90;;;;;;5038398;28;20506;-81
2023/08/21 02:01:09;;;;;;;13.45;12.25;;;22.10;99.90;;;;;;5033360;28;20635;-81
2023/08/21 02:03:35;;;;;;;13.67;12.27;;;22.90;99.90;;;;;;5032030;28;20866;-82
2023/08/21 02:06:01;;;;;;;14.00;12.60;;;22.10;99.90;;;;;;5030174;28;20387;-81
2023/08/21 02:08:32;;;;;;;13.30;12.18;;;22.10;99.90;;;;;;5030081;28;20470;-83
2023/08/21 02:10:57;;;;;;;13.30;11.90;;;22.20;99.90;;;;;;5040089;28;20412;-83
2023/08/21 02:13:23;;;;;;;13.00;11.80;;;22.20;99.90;;;;;;5050404;28;20393;-83
2023/08/21 02:15:49;;;;;;;13.70;12.40;;;21.30;99.90;;;;;;5048941;28;20949;-84
2023/08/21 02:18:14;;;;;;;12.30;11.20;;;22.20;99.90;;;;;;5048904;28;20474;-84
2023/08/21 02:20:40;;;;;;;11.80;10.60;;;22.20;99.90;;;;;;5049941;28;20397;-83
2023/08/21 02:23:06;;;;;;;13.68;12.38;;;22.80;99.90;;;;;;5048780;28;20417;-84
2023/08/21 02:25:32;;;;;;;13.20;12.00;;;22.20;99.90;;;;;;5050525;28;20392;-84
2023/08/21 02:27:58;;;;;;;12.82;11.73;;;21.30;99.90;;;;;;5052504;28;20393;-83
2023/08/21 02:30:25;;;;;;;12.52;11.50;;;21.50;99.90;;;;;;5053471;28;20393;-84
2023/08/21 02:32:51;;;;;;;13.52;12.02;;;21.20;99.90;;;;;;5052891;28;20393;-84
2023/08/21 02:35:17;;;;;;;12.17;11.20;;;22.10;99.90;;;;;;5052384;28;20449;-83
2023/08/21 02:37:43;;;;;;;13.00;11.80;;;21.90;99.90;;;;;;5053893;28;20401;-84
2023/08/21 02:40:08;;;;;;;13.47;12.37;;;21.60;99.90;;;;;;5051799;28;20396;-84
2023/08/21 02:42:35;;;;;;;12.68;11.57;;;22.00;99.90;;;;;;5052771;28;20835;-83
2023/08/21 02:45:03;;;;;;;12.50;11.40;;;21.60;99.90;;;;;;5031549;28;20393;-84
2023/08/21 02:47:29;;;;;;;12.65;11.45;;;21.90;99.90;;;;;;5052452;28;20444;-84
2023/08/21 02:49:55;;;;;;;12.82;11.63;;;21.90;99.90;;;;;;5053537;28;20429;-84
2023/08/21 02:52:20;;;;;;;12.77;11.67;;;22.00;99.90;;;;;;5059067;28;20397;-84
2023/08/21 02:54:46;;;;;;;13.30;12.10;;;21.90;99.90;;;;;;5056906;28;20401;-84
2023/08/21 02:57:12;;;;;;;13.30;12.10;;;21.80;99.90;;;;;;5053793;28;20425;-84
2023/08/21 02:59:37;;;;;;;13.10;12.00;;;21.40;99.90;;;;;;5054368;28;20389;-84
2023/08/21 03:02:03;;;;;;;13.10;11.90;;;22.00;99.90;;;;;;5054264;28;20390;-84
2023/08/21 03:04:28;;;;;;;13.23;11.98;;;22.00;99.90;;;;;;5052322;28;20389;-84
2023/08/21 03:06:54;;;;;;;12.90;11.83;;;21.90;99.90;;;;;;5051665;28;20382;-83
2023/08/21 03:09:19;;;;;;;12.93;11.80;;;21.90;99.90;;;;;;5051626;28;20389;-84
2023/08/21 03:11:45;;;;;;;13.48;12.18;;;21.80;99.90;;;;;;5053382;28;20388;-84
2023/08/21 03:14:10;;;;;;;13.00;11.80;;;21.70;99.90;;;;;;5053604;28;20389;-84
2023/08/21 03:16:36;;;;;;;12.52;11.40;;;21.80;99.90;;;;;;5052123;28;20417;-84
2023/08/21 03:19:01;;;;;;;12.53;11.50;;;21.80;99.90;;;;;;5051647;28;20385;-84
2023/08/21 03:21:27;;;;;;;13.25;12.05;;;21.80;99.90;;;;;;5051593;28;20393;-84
2023/08/21 03:23:59;;;;;;;13.73;12.52;;;22.20;99.90;;;;;;5052821;28;20388;-85
2023/08/21 03:26:24;;;;;;;12.73;11.52;;;21.70;99.90;;;;;;5051199;28;20397;-84
2023/08/21 03:28:50;;;;;;;12.50;11.33;;;21.40;99.90;;;;;;5051250;28;20431;-84
2023/08/21 03:31:15;;;;;;;13.17;11.87;;;20.90;99.90;;;;;;5053084;28;20416;-84
2023/08/21 03:33:41;;;;;;;14.40;12.43;;;21.60;99.90;;;;;;5053397;28;20788;-84
2023/08/21 03:36:06;;;;;;;12.80;11.70;;;21.60;99.90;;;;;;5052721;28;20427;-83
2023/08/21 03:38:32;;;;;;;13.50;12.20;;;21.50;99.90;;;;;;5050618;28;20401;-84
2023/08/21 03:40:59;;;;;;;12.60;11.70;;;21.70;99.90;;;;;;5052966;28;20385;-84
2023/08/21 03:43:25;;;;;;;13.93;12.63;;;21.50;99.90;;;;;;5044397;28;20399;-84
2023/08/21 03:45:51;;;;;;;12.68;11.63;;;20.80;99.90;;;;;;5031814;28;20445;-84
2023/08/21 03:48:16;;;;;;;13.10;11.88;;;21.60;99.90;;;;;;5031949;28;20395;-84
2023/08/21 03:50:42;;;;;;;14.30;12.80;;;20.60;99.90;;;;;;5031859;28;20379;-84
2023/08/21 03:53:07;;;;;;;13.27;12.07;;;21.50;99.90;;;;;;5042743;28;20400;-84
2023/08/21 03:55:34;;;;;;;12.93;11.73;;;21.50;99.90;;;;;;5051348;28;20393;-84
2023/08/21 03:58:00;;;;;;;13.32;12.13;;;21.50;99.90;;;;;;5044270;28;20536;-84
2023/08/21 04:00:26;;;;;;;13.50;12.30;;;21.50;99.90;;;;;;5030400;28;20391;-84
2023/08/21 04:02:51;;;;;;;13.90;12.60;;;20.40;99.90;;;;;;5031348;28;20395;-84
2023/08/21 04:05:17;;;;;;;13.95;12.65;;;21.30;99.90;;;;;;5038438;28;20815;-84
2023/08/21 04:07:42;;;;;;;14.00;12.70;;;20.60;99.90;;;;;;5027976;28;20400;-84
2023/08/21 04:10:08;;;;;;;14.18;12.90;;;21.30;99.90;;;;;;5029094;28;20402;-84
2023/08/21 04:12:33;;;;;;;14.00;12.70;;;21.30;99.90;;;;;;5051328;28;20398;-84
2023/08/21 04:14:59;;;;;;;14.90;13.70;;;21.40;99.90;;;;;;5052270;28;20424;-84
2023/08/21 04:17:25;;;;;;;14.17;12.97;;;20.70;99.90;;;;;;5052683;28;20473;-84
2023/08/21 04:19:51;;;;;;;14.50;13.23;;;22.20;99.90;;;;;;5051166;28;20412;-84
2023/08/21 04:22:17;;;;;;;14.25;12.95;;;21.20;99.90;;;;;;5051644;28;20889;-84
2023/08/21 04:24:42;;;;;;;13.40;12.30;;;21.20;99.90;;;;;;5050855;28;20400;-84
2023/08/21 04:27:08;;;;;;;14.67;13.10;;;21.10;99.90;;;;;;5052334;28;20881;-85
2023/08/21 04:29:35;;;;;;;13.73;12.43;;;20.20;99.90;;;;;;5053636;28;20738;-84
2023/08/21 04:32:01;;;;;;;13.65;12.38;;;21.10;99.90;;;;;;5055077;28;20385;-83
2023/08/21 04:34:26;;;;;;;12.80;11.68;;;20.20;99.90;;;;;;5063068;28;20404;-83
2023/08/21 04:36:52;;;;;;;13.80;12.50;;;20.50;99.90;;;;;;5071652;28;20394;-84
2023/08/21 04:39:18;;;;;;;14.15;12.90;;;20.40;99.90;;;;;;5065183;28;20397;-84
2023/08/21 04:41:44;;;;;;;13.15;11.98;;;21.10;99.90;;;;;;5051951;28;20953;-84
2023/08/21 04:44:09;;;;;;;12.60;11.60;;;21.20;99.90;;;;;;5039074;28;20428;-84
2023/08/21 04:46:35;;;;;;;13.18;11.88;;;21.20;99.90;;;;;;5041564;28;20405;-84
2023/08/21 04:49:00;;;;;;;13.67;12.43;;;21.20;99.90;;;;;;5050137;28;20401;-84
2023/08/21 04:51:26;;;;;;;13.18;12.05;;;20.40;99.90;;;;;;5051625;28;20398;-83
2023/08/21 04:53:51;;;;;;;13.80;12.40;;;21.20;99.90;;;;;;5051734;28;20903;-84
2023/08/21 04:56:17;;;;;;;14.20;12.80;;;21.10;99.90;;;;;;5051072;28;20393;-84
2023/08/21 04:58:42;;;;;;;13.40;12.10;;;21.00;99.90;;;;;;5052246;28;20397;-84
2023/08/21 05:01:08;;;;;;;13.30;12.00;;;21.00;99.90;;;;;;5050876;28;20964;-84
2023/08/21 05:03:34;;;;;;;13.90;12.60;;;22.10;99.90;;;;;;5052135;28;20382;-84
2023/08/21 05:05:59;;;;;;;13.37;12.07;;;20.40;99.90;;;;;;5050421;28;20907;-85
2023/08/21 05:08:26;;;;;;;13.85;12.55;;;21.20;99.90;;;;;;5051188;28;20760;-85
2023/08/21 05:10:55;;;;;;;13.27;12.07;;;21.10;99.90;;;;;;5050846;28;20444;-84
2023/08/21 05:13:21;;;;;;;13.50;12.40;;;21.20;99.90;;;;;;5051916;28;20447;-84
2023/08/21 05:15:55;;;;;;;13.57;12.30;;;20.10;99.90;;;;;;5050433;28;20484;-83
2023/08/21 05:18:21;;;;;;;13.63;12.43;;;20.80;99.90;;;;;;5050723;28;20397;-83
2023/08/21 05:20:48;;;;;;;13.43;12.20;;;23.40;99.90;;;;;;5051272;28;20753;-84
2023/08/21 05:23:13;;;;;;;13.10;12.00;;;21.70;99.90;;;;;;5050213;28;20390;-84
2023/08/21 05:25:39;;;;;;;12.83;11.73;;;21.60;99.90;;;;;;5050177;28;20382;-84
2023/08/21 05:28:05;;;;;;;12.57;11.57;;;22.80;99.90;;;;;;5050802;28;20401;-81
2023/08/21 05:30:31;;;;;;;13.32;12.07;;;21.40;99.90;;;;;;5049768;28;20417;-84
2023/08/21 05:32:56;;;;;;;11.80;10.90;;;20.80;99.90;;;;;;5050937;28;20396;-84
2023/08/21 05:35:22;;;;;;;12.00;10.90;;;21.50;99.90;;;;;;5050966;28;20480;-84
2023/08/21 05:37:48;;;;;;;13.07;11.87;;;20.50;99.90;;;;;;5049761;28;20416;-84
2023/08/21 05:40:13;;;;;;;12.20;11.00;;;21.50;99.90;;;;;;5050982;28;20400;-84
2023/08/21 05:42:39;;;;;;;12.20;11.17;;;21.50;99.90;;;;;;5050133;28;20756;-84
2023/08/21 05:45:05;;;;;;;12.95;11.75;;;21.50;99.90;;;;;;5031673;28;20486;-84
2023/08/21 05:47:31;;;;;;;12.70;11.63;;;21.70;99.90;;;;;;5033560;28;20922;-84
2023/08/21 05:49:56;;;;;;;13.32;11.57;;;21.60;99.90;;;;;;5055972;28;20393;-84
2023/08/21 05:52:22;;;;;;;12.10;11.10;;;21.70;99.90;;;;;;5056552;28;20467;-84
2023/08/21 05:54:49;;;;;;;11.10;10.00;;;21.70;99.90;;;;;;5054210;28;20400;-85
2023/08/21 05:57:14;;;;;;;11.45;10.43;;;21.70;99.90;;;;;;5055485;28;20416;-84
2023/08/21 05:59:47;;;;;;;12.13;11.00;;;21.80;99.90;;;;;;5047724;28;20401;-84
2023/08/21 06:02:13;;;;;;;13.05;11.75;;;22.00;99.90;;;;;;5009516;28;20384;-84
2023/08/21 06:04:40;;;;;;;11.40;10.40;;;21.00;99.90;;;;;;5022985;28;20405;-84
2023/08/21 06:07:06;;;;;;;11.80;10.70;;;21.70;99.90;;;;;;5012083;28;21038;-84
2023/08/21 06:09:33;;;;;;;11.87;10.77;;;21.90;99.90;;;;;;5028752;28;20414;-84
2023/08/21 06:12:01;;;;;;;12.07;10.97;;;21.80;99.90;;;;;;5037381;28;20913;-84
2023/08/21 06:14:28;;;;;;;11.40;10.30;;;23.10;99.90;;;;;;5029611;28;20387;-84
2023/08/21 06:16:59;;;;;;;10.37;9.57;;;21.40;99.90;;;;;;5031670;28;20502;-84
2023/08/21 06:19:25;;;;;;;11.10;9.95;;;22.30;99.90;;;;;;5031268;28;20439;-85
2023/08/21 06:21:50;;;;;;;11.30;10.10;;;23.00;99.90;;;;;;5048337;28;20424;-84
2023/08/21 06:24:16;;;;;;;11.37;10.27;;;22.40;99.90;;;;;;5040309;28;20399;-84
2023/08/21 06:26:41;;;;;;;12.40;10.50;;;22.80;99.90;;;;;;5030406;28;20379;-84
2023/08/21 06:29:07;;;;;;;10.57;9.67;;;22.40;99.90;;;;;;5031012;28;20867;-83
2023/08/21 06:31:33;;;;;;;11.07;9.55;;;21.70;99.90;;;;;;5032526;28;20426;-83
2023/08/21 06:33:58;;;;;;;11.30;10.30;;;22.60;99.90;;;;;;5040612;28;20417;-84
2023/08/21 06:36:24;;;;;;;11.70;10.50;;;21.80;99.90;;;;;;5050639;28;20397;-83
2023/08/21 06:38:49;;;;;;;11.03;10.10;;;23.60;99.90;;;;;;5049062;28;20397;-84
2023/08/21 06:41:15;;;;;;;11.00;10.10;;;25.20;99.90;;;;;;5048985;28;20407;-83
2023/08/21 06:43:41;;;;;;;11.23;10.23;;;23.00;99.90;;;;;;5042946;28;20391;-83
2023/08/21 06:46:07;;;;;;;10.38;9.48;;;23.00;99.90;;;;;;5037949;28;20415;-83
2023/08/21 06:48:32;;;;;;;11.13;9.90;;;23.10;99.90;;;;;;5048722;28;20421;-83
2023/08/21 06:50:58;;;;;;;11.10;10.13;;;22.20;99.90;;;;;;5049246;28;20402;-83
2023/08/21 06:53:24;;;;;;;11.02;10.02;;;23.20;99.90;;;;;;5048796;28;20774;-83
2023/08/21 06:55:49;;;;;;;11.17;9.93;;;22.80;99.90;;;;;;5050500;28;20388;-83
2023/08/21 06:58:15;;;;;;;11.90;10.70;;;23.00;99.90;;;;;;5045172;28;20805;-84
2023/08/21 07:00:40;;;;;;;10.40;9.40;;;22.40;99.90;;;;;;5029655;28;20393;-84
2023/08/21 07:03:09;;;;;;;11.27;10.18;;;24.30;99.90;;;;;;5030585;28;20390;-84
2023/08/21 07:05:34;;;;;;;11.27;10.25;;;23.70;99.90;;;;;;5029223;28;20395;-83
2023/08/21 07:08:00;;;;;;;11.00;10.00;;;22.30;99.90;;;;;;5034234;28;20805;-83
2023/08/21 07:10:25;;;;;;;11.40;10.50;;;23.80;99.90;;;;;;5037020;28;20461;-84
2023/08/21 07:12:52;;;;;;;11.93;10.83;;;24.10;99.90;;;;;;5032715;28;20382;-83
2023/08/21 07:15:18;;;;;;;11.65;10.55;;;23.10;99.90;;;;;;5033834;28;20387;-83
2023/08/21 07:17:44;;;;;;;11.80;10.70;;;25.20;99.90;;;;;;5051383;28;20416;-84
2023/08/21 07:20:10;;;;;;;12.57;11.33;;;24.60;99.90;;;;;;5052777;28;20389;-84
2023/08/21 07:22:36;;;;;;;12.70;11.40;;;24.60;99.90;;;;;;5053567;28;20392;-83
2023/08/21 07:25:04;;;;;;;12.17;11.17;;;26.20;99.90;;;;;;5053013;28;20881;-84
2023/08/21 07:27:32;;;;;;;13.80;12.48;;;24.70;99.90;;;;;;5052036;28;20530;-84
2023/08/21 07:29:57;;;;;;;12.25;11.05;;;24.90;99.90;;;;;;5051643;28;20438;-84
2023/08/21 07:32:23;;;;;;;12.27;11.07;;;25.00;99.90;;;;;;5051879;28;20476;-83
2023/08/21 07:34:53;;;;;;;13.40;12.17;;;25.70;99.90;;;;;;5053523;28;20393;-85
2023/08/21 07:37:19;;;;;;;12.15;10.55;;;26.00;99.90;;;;;;5053623;28;20435;-84
2023/08/21 07:39:45;;;;;;;11.27;10.30;;;27.60;99.90;;;;;;5054053;28;20780;-84
2023/08/21 07:42:13;;;;;;;12.43;11.13;;;23.40;99.90;;;;;;5052257;28;20730;-84
2023/08/21 07:44:39;;;;;;;12.00;11.10;;;25.80;99.90;;;;;;5035422;28;20395;-84
2023/08/21 07:47:05;;;;;;;12.10;10.98;;;24.90;99.90;;;;;;5032564;28;20468;-83
2023/08/21 07:49:32;;;;;;;12.57;11.33;;;25.00;99.90;;;;;;5048232;28;20401;-83
2023/08/21 07:51:57;;;;;;;11.88;10.77;;;25.00;99.90;;;;;;5054380;28;20907;-83
2023/08/21 07:54:24;;;;;;;12.50;11.40;;;25.10;99.90;;;;;;5054629;28;20393;-82
2023/08/21 07:56:50;;;;;;;11.65;10.65;;;25.10;99.90;;;;;;5060445;28;20400;-83
2023/08/21 07:59:15;;;;;;;12.60;11.50;;;24.70;99.90;;;;;;5072941;28;20397;-83
2023/08/21 08:01:41;;;;;;;11.52;10.52;;;26.20;99.90;;;;;;5075600;28;20378;-83
2023/08/21 08:04:07;;;;;;;11.80;10.70;;;26.10;99.90;;;;;;5071254;28;20390;-82
2023/08/21 08:06:33;;;;;;;12.40;11.20;;;25.40;99.90;;;;;;5071640;28;20393;-83
2023/08/21 08:08:58;;;;;;;11.75;10.55;;;25.30;99.90;;;;;;5060755;28;20425;-86
2023/08/21 08:11:24;;;;;;;11.13;10.23;;;26.40;99.90;;;;;;5038943;28;20466;-86
2023/08/21 08:13:50;;;;;;;11.52;10.40;;;25.50;99.90;;;;;;5037613;28;21194;-86
2023/08/21 08:16:16;;;;;;;11.67;10.67;;;26.00;99.90;;;;;;5038511;28;20463;-85
2023/08/21 08:18:42;;;;;;;12.57;11.23;;;25.50;99.90;;;;;;5033101;28;20485;-85
2023/08/21 08:21:08;;;;;;;12.17;11.07;;;25.70;99.90;;;;;;5035343;28;20387;-86
2023/08/21 08:23:34;;;;;;;12.25;10.38;;;25.80;99.90;;;;;;5033499;28;20395;-86
2023/08/21 08:26:00;;;;;;;12.40;11.40;;;25.60;99.90;;;;;;5049418;28;20745;-86
2023/08/21 08:28:25;;;;;;;12.63;11.35;;;26.90;99.90;;;;;;5052085;28;20397;-85
2023/08/21 08:30:51;;;;;;;11.07;10.17;;;28.30;99.90;;;;;;5056246;28;20913;-85
2023/08/21 08:33:16;;;;;;;12.15;11.15;;;26.20;99.90;;;;;;5055316;28;20404;-86
2023/08/21 08:35:43;;;;;;;11.90;10.90;;;26.70;99.90;;;;;;5053556;28;20419;-85
2023/08/21 08:38:08;;;;;;;10.68;9.88;;;26.00;99.90;;;;;;5053269;28;20496;-85
2023/08/21 08:40:38;;;;;;;11.40;10.50;;;26.20;99.90;;;;;;5052611;28;20476;-86
2023/08/21 08:43:05;;;;;;;11.00;10.00;;;27.60;99.90;;;;;;5048680;28;20440;-84
2023/08/21 08:45:32;;;;;;;11.13;10.18;;;26.40;99.90;;;;;;5033056;28;20441;-85
2023/08/21 08:48:01;;;;;;;10.63;9.52;;;26.40;99.90;;;;;;5040276;28;20394;-85
2023/08/21 08:50:30;;;;;;;11.00;9.95;;;25.20;99.90;;;;;;5052218;28;20382;-86
2023/08/21 08:52:56;;;;;;;10.07;9.07;;;26.50;99.90;;;;;;5052285;28;20916;-86
2023/08/21 08:55:22;;;;;;;11.60;10.48;;;26.70;99.90;;;;;;5051393;28;20508;-84
2023/08/21 08:57:47;;;;;;;10.95;9.88;;;26.70;99.90;;;;;;5052903;28;20490;-86
2023/08/21 09:00:13;;;;;;;10.80;9.90;;;26.90;99.90;;;;;;5053106;28;20393;-85
2023/08/21 09:02:39;;;;;;;10.52;9.63;;;26.70;99.90;;;;;;5057008;28;20417;-85
2023/08/21 09:05:06;;;;;;;11.00;10.10;;;26.80;99.90;;;;;;5059680;28;20378;-85
2023/08/21 09:07:32;;;;;;;10.50;9.70;;;26.80;99.90;;;;;;5068480;28;20466;-84
2023/08/21 09:09:57;;;;;;;9.90;8.90;;;26.80;99.90;;;;;;5055573;28;20411;-85
2023/08/21 09:12:23;;;;;;;15.30;10.80;;;27.00;99.90;;;;;;5047065;28;20399;-86
2023/08/21 09:14:48;;;;;;;10.83;9.90;;;27.00;99.90;;;;;;5032510;28;20898;-86
2023/08/21 09:17:14;;;;;;;11.38;10.23;;;26.90;99.90;;;;;;5033356;28;20411;-87
2023/08/21 09:19:40;;;;;;;11.38;10.38;;;27.10;99.90;;;;;;5030504;28;20395;-86
2023/08/21 09:22:11;;;;;;;10.37;9.37;;;27.40;99.90;;;;;;5026352;28;20395;-86
2023/08/21 09:24:38;;;;;;;10.80;9.90;;;27.10;99.90;;;;;;5028455;28;20401;-86
2023/08/21 09:27:05;;;;;;;10.82;9.82;;;27.10;99.90;;;;;;5034649;28;20391;-88
2023/08/21 09:29:40;;;;;;;10.25;9.45;;;27.20;99.90;;;;;;5040398;28;20399;-87
2023/08/21 09:32:06;;;;;;;9.60;8.80;;;25.30;99.90;;;;;;5034265;28;20379;-86
2023/08/21 09:34:36;;;;;;;10.60;9.70;;;27.30;99.90;;;;;;5032519;28;20394;-86
2023/08/21 09:37:06;;;;;;;10.40;9.60;;;27.60;99.90;;;;;;5040760;22;20426;-81
2023/08/21 09:41:27;;;;;;;10.07;9.05;;;27.80;99.90;;;;;;5093568;27;20361;-83
2023/08/21 09:43:53;;;;;;;10.65;9.55;;;;;;;;;;5075514;28;20473;-82
2023/08/21 09:46:27;;;;;;;10.05;9.15;;;27.80;99.90;;;;;;5073111;28;20381;-82
2023/08/21 09:48:54;;;;;;;10.48;9.68;;;28.00;99.90;;;;;;5072683;28;20872;-82
2023/08/21 09:51:20;;;;;;;9.80;8.80;;;28.10;99.90;;;;;;5072790;28;20455;-83
2023/08/21 09:53:48;;;;;;;9.93;9.02;;;28.10;99.90;;;;;;5072213;28;20389;-82
2023/08/21 09:56:14;;;;;;;10.03;9.23;;;28.10;99.90;;;;;;5072464;28;20385;-82
2023/08/21 09:58:40;;;;;;;10.65;9.55;;;28.90;99.90;;;;;;5073438;28;20388;-82
2023/08/21 10:01:13;;;;;;;10.80;9.68;;;29.30;99.90;;;;;;5074399;28;20434;-83
2023/08/21 10:03:40;;;;;;;9.82;9.02;;;28.60;99.90;;;;;;5054410;28;20400;-82
2023/08/21 10:06:08;;;;;;;10.40;9.30;;;28.50;99.90;;;;;;5069794;28;20431;-83
2023/08/21 10:08:39;;;;;;;10.40;9.40;;;28.60;99.90;;;;;;5069004;28;20452;-83
2023/08/21 10:11:08;;;;;;;10.10;9.10;;;28.50;99.90;;;;;;5063327;28;20393;-84
2023/08/21 10:13:36;;;;;;;10.25;8.98;;;28.40;99.90;;;;;;5066947;28;20479;-84
2023/08/21 10:16:02;;;;;;;11.00;10.00;;;28.70;99.90;;;;;;5069167;28;20454;-83
2023/08/21 10:18:34;;;;;;;10.27;9.38;;;28.70;99.90;;;;;;5068419;28;20415;-82
2023/08/21 10:21:17;;;;;;;10.70;9.70;;;29.20;99.90;;;;;;5069276;28;20412;-84
2023/08/21 10:23:47;;;;;;;10.55;9.65;;;30.00;99.90;;;;;;5068427;28;20895;-84
2023/08/21 10:26:13;;;;;;;10.40;9.40;;;28.60;99.90;;;;;;5067002;28;20381;-83
2023/08/21 10:28:59;;;;;;;10.40;9.35;;;28.70;99.90;;;;;;5067076;28;20400;-83
2023/08/21 10:31:33;;;;;;;11.88;9.98;;;28.90;99.90;;;;;;5069962;28;20482;-85
2023/08/21 10:34:01;;;;;;;10.07;9.18;;;29.30;99.90;;;;;;5063397;28;20415;-82
2023/08/21 10:37:03;;;;;;;10.93;9.93;;;28.80;99.90;;;;;;5071232;28;20408;-83
2023/08/21 10:39:31;;;;;;;9.75;9.00;;;29.00;99.90;;;;;;5069576;28;20407;-83
2023/08/21 10:42:13;;;;;;;9.48;8.70;;;29.30;99.90;;;;;;5089450;28;20474;-84
2023/08/21 10:44:42;;;;;;;9.40;8.50;;;29.30;99.90;;;;;;5089840;28;20850;-82
2023/08/21 10:47:27;;;;;;;10.20;9.20;;;29.30;99.90;;;;;;5090278;28;20403;-83
2023/08/21 10:50:00;;;;;;;10.82;8.10;;;29.30;99.90;;;;;;5087204;28;20391;-84
2023/08/21 10:52:44;;;;;;;9.30;8.40;;;29.40;99.90;;;;;;5077861;28;20383;-83
2023/08/21 10:55:14;;;;;;;8.55;7.85;;;29.40;99.90;;;;;;5076371;28;20452;-83
2023/08/21 10:57:44;;;;;;;8.82;7.82;;;29.50;99.90;;;;;;5077302;28;20410;-84
2023/08/21 11:00:14;;;;;;;8.73;7.82;;;29.60;99.90;;;;;;5076301;28;20404;-84
2023/08/21 11:02:42;;;;;;;8.85;7.93;;;29.70;99.90;;;;;;5074827;28;20390;-84
2023/08/21 11:05:08;;;;;;;8.30;7.60;;;29.60;99.90;;;;;;5071639;28;20398;-84
2023/08/21 11:07:45;;;;;;;7.85;7.20;;;29.50;99.90;;;;;;5072812;28;20862;-84
2023/08/21 11:10:13;;;;;;;8.25;7.55;;;29.80;99.90;;;;;;5071111;28;20490;-84
2023/08/21 11:12:49;;;;;;;8.50;7.68;;;30.10;99.90;;;;;;5071671;28;20789;-84
2023/08/21 11:15:16;;;;;;;8.20;7.50;;;30.10;99.90;;;;;;5071522;28;20478;-85
2023/08/21 11:17:41;;;;;;;9.18;8.30;;;30.30;99.90;;;;;;5071248;28;20403;-85
2023/08/21 11:20:08;;;;;;;8.73;7.87;;;;;;;;;;5071263;28;20759;-85
2023/08/21 11:22:34;;;;;;;8.63;7.83;;;30.70;99.90;;;;;;5071946;28;20388;-85
2023/08/21 11:24:59;;;;;;;7.82;7.22;;;31.00;99.90;;;;;;5094272;28;20410;-83
2023/08/21 11:27:25;;;;;;;8.53;7.73;;;30.80;99.90;;;;;;5099393;28;20382;-81
2023/08/21 11:29:52;;;;;;;7.57;6.88;;;30.80;99.90;;;;;;5097736;28;20463;-85
2023/08/21 11:32:23;;;;;;;8.43;7.63;;;31.10;99.90;;;;;;5074928;28;20399;-83
2023/08/21 11:34:51;;;;;;;7.95;7.25;;;31.40;99.90;;;;;;5088522;28;20463;-82
2023/08/21 11:37:19;;;;;;;8.50;7.70;;;31.70;99.90;;;;;;5071980;28;20905;-83
2023/08/21 11:39:48;;;;;;;8.00;7.20;;;31.90;99.90;;;;;;5072947;28;20407;-83
2023/08/21 11:42:14;;;;;;;8.00;7.20;;;33.30;99.90;;;;;;5078823;28;20376;-82
2023/08/21 11:44:41;;;;;;;7.32;6.72;;;33.40;99.90;;;;;;5081207;28;20411;-84
2023/08/21 11:47:07;;;;;;;7.45;6.85;;;34.00;99.90;;;;;;5077778;28;20438;-82
2023/08/21 11:49:32;;;;;;;11.57;6.70;;;32.90;99.90;;;;;;5074773;28;20383;-82
2023/08/21 11:51:58;;;;;;;7.00;6.40;;;33.60;99.90;;;;;;5073428;28;20396;-83
2023/08/21 11:54:23;;;;;;;7.67;7.00;;;34.30;99.90;;;;;;5079390;28;20479;-83
2023/08/21 11:56:49;;;;;;;7.10;6.60;;;34.40;99.90;;;;;;5071808;28;20399;-84
2023/08/21 11:59:23;;;;;;;7.57;6.87;;;34.90;99.90;;;;;;5077348;28;20384;-83
2023/08/21 12:01:52;;;;;;;8.27;6.70;;;34.60;99.90;;;;;;5081187;28;20410;-83
2023/08/21 12:04:18;;;;;;;7.30;6.60;;;34.20;99.90;;;;;;5081102;28;20388;-84
2023/08/21 12:06:44;;;;;;;7.50;6.50;;;34.10;99.90;;;;;;5082396;28;20388;-83
2023/08/21 12:09:10;;;;;;;6.75;6.22;;;34.40;99.90;;;;;;5079601;28;20450;-84
2023/08/21 12:11:38;;;;;;;7.40;6.80;;;33.80;99.90;;;;;;5079996;28;20388;-83
2023/08/21 12:14:06;;;;;;;9.88;7.10;;;34.20;99.90;;;;;;5087958;28;20416;-83
2023/08/21 12:16:31;;;;;;;7.60;6.90;;;34.00;99.90;;;;;;5097191;28;20478;-82
2023/08/21 12:19:00;;;;;;;7.63;6.93;;;34.10;99.90;;;;;;5097296;28;20388;-81
2023/08/21 12:21:25;;;;;;;7.35;6.75;;;33.80;99.90;;;;;;5096935;28;20419;-82
2023/08/21 12:23:51;;;;;;;9.10;7.67;;;33.50;99.90;;;;;;5097751;28;20406;-82
2023/08/21 12:26:20;;;;;;;7.60;6.90;;;33.60;99.90;;;;;;5091758;28;20428;-81
2023/08/21 12:28:49;;;;;;;7.82;7.15;;;33.40;99.90;;;;;;5095664;28;20379;-82
2023/08/21 12:31:15;;;;;;;8.05;7.25;;;33.40;99.90;;;;;;5093726;28;20408;-82
2023/08/21 12:33:41;;;;;;;7.50;6.80;;;33.80;99.90;;;;;;5087512;28;20411;-81